Time;durP1;ratioP1;P1;durP2;ratioP2;P2;SDS_P1;SDS_P2;PMS_P1;PMS_P2;Temp;Humidity;BMP_temperature;BMP_pressure;BME280_temperature;BME280_humidity;BME280_pressure;Samples;Min_cycle;Max_cycle;Signal;HPM_P1;HPM_P2
2021/11/04 00:00:24;;;;;;;16.50;3.70;;;19.90;61.00;;;;;;5078639;28;20044;-41
2021/11/04 00:02:52;;;;;;;14.68;3.33;;;20.00;61.10;;;;;;5078450;28;20045;-41
2021/11/04 00:05:20;;;;;;;14.50;2.55;;;19.90;61.00;;;;;;5085447;28;20101;-40
2021/11/04 00:07:49;;;;;;;14.30;2.25;;;19.90;60.90;;;;;;5073155;28;20053;-40
2021/11/04 00:10:17;;;;;;;8.45;2.63;;;19.90;60.90;;;;;;5076274;28;20032;-41
2021/11/04 00:12:45;;;;;;;19.38;3.35;;;19.90;60.80;;;;;;5075396;28;20040;-41
2021/11/04 00:15:12;;;;;;;16.75;2.35;;;19.90;60.70;;;;;;5081791;28;20583;-40
2021/11/04 00:17:39;;;;;;;13.25;3.00;;;19.90;60.60;;;;;;5075518;28;20419;-40
2021/11/04 00:20:09;;;;;;;17.45;2.38;;;19.90;60.50;;;;;;5083301;28;20514;-41
2021/11/04 00:22:36;;;;;;;8.60;2.97;;;19.90;60.40;;;;;;5074476;28;20135;-40
2021/11/04 00:25:03;;;;;;;7.95;2.40;;;19.90;60.30;;;;;;5076552;28;20085;-41
2021/11/04 00:27:30;;;;;;;5.50;2.03;;;19.90;60.30;;;;;;5074737;28;20040;-41
2021/11/04 00:29:59;;;;;;;10.43;2.65;;;19.90;60.30;;;;;;5078672;28;20127;-40
2021/11/04 00:32:26;;;;;;;5.10;1.60;;;19.90;60.20;;;;;;5081093;28;20393;-41
2021/11/04 00:34:53;;;;;;;9.05;1.48;;;19.90;60.20;;;;;;5077913;28;20040;-40
2021/11/04 00:37:20;;;;;;;3.22;1.10;;;19.80;60.60;;;;;;5073255;28;20666;-41
2021/11/04 00:39:47;;;;;;;6.63;0.93;;;19.80;60.00;;;;;;5074692;28;20080;-41
2021/11/04 00:42:14;;;;;;;5.80;1.35;;;19.80;60.00;;;;;;5078363;28;20505;-41
2021/11/04 00:44:41;;;;;;;4.75;2.42;;;19.80;59.90;;;;;;5079481;28;20095;-41
2021/11/04 00:47:10;;;;;;;10.02;1.65;;;19.80;59.90;;;;;;5082354;28;20079;-42
2021/11/04 00:49:37;;;;;;;4.65;1.08;;;19.80;59.80;;;;;;5070581;28;20051;-41
2021/11/04 00:52:04;;;;;;;2.72;0.82;;;19.80;59.80;;;;;;5076703;28;20076;-42
2021/11/04 00:54:31;;;;;;;5.22;0.82;;;19.80;59.80;;;;;;5076589;28;20040;-42
2021/11/04 00:56:58;;;;;;;4.65;0.60;;;19.80;59.70;;;;;;5077772;28;20517;-41
2021/11/04 00:59:25;;;;;;;3.38;0.80;;;19.80;59.70;;;;;;5077173;28;20724;-44
2021/11/04 01:01:52;;;;;;;5.25;0.85;;;19.80;59.70;;;;;;5079650;28;20076;-43
2021/11/04 01:04:21;;;;;;;4.43;0.98;;;19.80;59.60;;;;;;5074147;28;20044;-42
2021/11/04 01:06:48;;;;;;;6.82;1.98;;;19.80;59.60;;;;;;5072382;28;20112;-41
2021/11/04 01:09:15;;;;;;;2.78;0.52;;;19.70;59.50;;;;;;5067601;28;20568;-41
2021/11/04 01:11:42;;;;;;;1.92;0.57;;;19.70;59.50;;;;;;5079279;28;20051;-42
2021/11/04 01:14:09;;;;;;;3.03;0.77;;;19.70;59.50;;;;;;5081615;28;20044;-41
2021/11/04 01:16:38;;;;;;;3.80;1.17;;;19.70;59.50;;;;;;5075259;28;20043;-41
2021/11/04 01:19:05;;;;;;;6.30;1.15;;;19.70;59.40;;;;;;5074137;28;20164;-41
2021/11/04 01:21:34;;;;;;;2.88;0.50;;;19.70;59.40;;;;;;5078249;28;20160;-41
2021/11/04 01:24:01;;;;;;;6.28;1.35;;;19.70;59.30;;;;;;5078362;28;20052;-41
2021/11/04 01:26:28;;;;;;;4.38;1.10;;;19.70;59.30;;;;;;5077752;28;20050;-41
2021/11/04 01:28:55;;;;;;;0.32;0.28;;;19.70;59.20;;;;;;5072800;28;20047;-41
2021/11/04 01:31:22;;;;;;;2.35;0.40;;;19.70;59.20;;;;;;5072192;28;20043;-41
2021/11/04 01:33:49;;;;;;;3.22;0.32;;;19.60;59.00;;;;;;5079656;28;20039;-41
2021/11/04 01:36:16;;;;;;;5.45;0.73;;;19.60;59.10;;;;;;5077030;28;20032;-41
2021/11/04 01:38:44;;;;;;;1.85;0.40;;;19.60;59.10;;;;;;5077184;28;20122;-41
2021/11/04 01:41:12;;;;;;;1.80;0.80;;;19.60;59.00;;;;;;5080752;28;20060;-42
2021/11/04 01:43:39;;;;;;;3.88;0.63;;;19.60;59.00;;;;;;5075901;28;20051;-41
2021/11/04 01:46:06;;;;;;;0.88;0.50;;;19.60;59.50;;;;;;5073729;28;20127;-41
2021/11/04 01:48:33;;;;;;;2.40;1.33;;;19.60;58.90;;;;;;5076259;28;20032;-41
2021/11/04 01:51:01;;;;;;;2.33;0.55;;;19.60;58.90;;;;;;5075162;28;20056;-41
2021/11/04 01:53:28;;;;;;;1.38;0.47;;;19.60;58.90;;;;;;5081297;28;20084;-41
2021/11/04 01:55:56;;;;;;;2.63;0.63;;;19.60;58.90;;;;;;5077549;28;20044;-41
2021/11/04 01:58:23;;;;;;;3.55;0.73;;;19.60;59.40;;;;;;5071807;28;20040;-41
2021/11/04 02:00:50;;;;;;;1.33;0.65;;;19.50;58.80;;;;;;5074348;28;20514;-41
2021/11/04 02:03:28;;;;;;;1.73;0.50;;;19.50;58.80;;;;;;5076983;28;20047;-41
2021/11/04 02:06:00;;;;;;;0.95;0.70;;;19.50;58.80;;;;;;5078579;28;20056;-41
2021/11/04 02:08:37;;;;;;;1.65;0.80;;;19.50;58.90;;;;;;5077992;28;20500;-41
2021/11/04 02:11:11;;;;;;;1.23;0.40;;;19.50;58.90;;;;;;5080540;28;20147;-42
2021/11/04 02:13:45;;;;;;;0.75;0.50;;;19.50;58.90;;;;;;5072699;28;20048;-42
2021/11/04 02:16:16;;;;;;;2.70;0.75;;;19.50;58.90;;;;;;5064410;28;20052;-42
2021/11/04 02:18:45;;;;;;;3.08;0.68;;;19.50;58.90;;;;;;5073336;28;20037;-41
2021/11/04 02:21:20;;;;;;;1.63;0.65;;;19.50;58.80;;;;;;5076424;28;20058;-41
2021/11/04 02:23:52;;;;;;;3.97;0.50;;;19.50;58.80;;;;;;5074722;28;20050;-41
2021/11/04 02:26:23;;;;;;;2.03;0.70;;;19.50;58.80;;;;;;5084754;28;20535;-41
2021/11/04 02:28:52;;;;;;;2.00;0.65;;;19.50;58.80;;;;;;5076229;28;20051;-41
2021/11/04 02:31:20;;;;;;;1.10;0.40;;;19.50;58.80;;;;;;5071990;28;20040;-39
2021/11/04 02:33:48;;;;;;;0.45;0.45;;;19.50;58.70;;;;;;5076628;28;20035;-41
2021/11/04 02:36:16;;;;;;;1.80;0.40;;;19.40;58.50;;;;;;5076518;28;20055;-42
2021/11/04 02:38:44;;;;;;;0.77;0.32;;;19.40;58.40;;;;;;5076835;28;20041;-41
2021/11/04 02:41:11;;;;;;;3.80;0.52;;;19.40;58.40;;;;;;5078014;28;20058;-41
2021/11/04 02:43:41;;;;;;;2.75;0.50;;;19.40;58.50;;;;;;5075093;28;20122;-43
2021/11/04 02:46:08;;;;;;;1.23;0.50;;;19.40;58.50;;;;;;5073306;28;20040;-42
2021/11/04 02:48:36;;;;;;;0.30;0.22;;;19.40;58.40;;;;;;5073885;28;20032;-41
2021/11/04 02:51:04;;;;;;;2.22;0.95;;;19.40;58.40;;;;;;5073914;28;20048;-41
2021/11/04 02:53:31;;;;;;;0.60;0.30;;;19.40;58.40;;;;;;5079812;28;20044;-42
2021/11/04 02:55:58;;;;;;;1.70;0.65;;;19.40;58.40;;;;;;5079477;28;20048;-41
2021/11/04 02:58:27;;;;;;;1.25;0.20;;;19.40;58.40;;;;;;5078110;28;20043;-42
2021/11/04 03:00:57;;;;;;;1.08;0.63;;;19.40;58.30;;;;;;5077446;28;20050;-42
2021/11/04 03:03:24;;;;;;;3.70;0.55;;;19.40;58.30;;;;;;5076780;28;20035;-41
2021/11/04 03:05:52;;;;;;;2.00;0.30;;;19.30;58.30;;;;;;5080550;28;20534;-41
2021/11/04 03:08:19;;;;;;;3.80;0.40;;;19.30;58.30;;;;;;5083875;28;20534;-41
2021/11/04 03:10:46;;;;;;;1.52;0.45;;;19.30;58.10;;;;;;5077202;28;20048;-41
2021/11/04 03:13:13;;;;;;;1.95;0.30;;;19.30;58.00;;;;;;5075500;28;20121;-41
2021/11/04 03:15:43;;;;;;;1.25;0.30;;;19.30;58.00;;;;;;5076675;28;20512;-41
2021/11/04 03:18:12;;;;;;;0.90;0.32;;;19.30;58.00;;;;;;5073906;28;20048;-41
2021/11/04 03:20:40;;;;;;;3.83;0.52;;;19.30;58.00;;;;;;5081842;28;20047;-41
2021/11/04 03:23:08;;;;;;;1.05;0.50;;;19.30;58.00;;;;;;5082115;28;20094;-42
2021/11/04 03:25:35;;;;;;;1.02;0.32;;;19.30;58.00;;;;;;5076296;28;20047;-41
2021/11/04 03:28:04;;;;;;;0.82;0.22;;;19.30;58.00;;;;;;5072697;28;20048;-41
2021/11/04 03:30:37;;;;;;;0.50;0.35;;;19.30;58.00;;;;;;5082005;28;20202;-41
2021/11/04 03:33:07;;;;;;;0.30;0.28;;;19.30;58.00;;;;;;5062477;28;20054;-41
2021/11/04 03:35:36;;;;;;;1.05;0.65;;;19.20;57.90;;;;;;5082422;28;20435;-41
2021/11/04 03:38:07;;;;;;;0.50;0.40;;;19.20;57.90;;;;;;5081968;28;20051;-43
2021/11/04 03:40:34;;;;;;;1.95;0.43;;;19.30;58.00;;;;;;5072077;28;20097;-42
2021/11/04 03:43:02;;;;;;;1.48;0.57;;;19.20;57.90;;;;;;5077423;28;20048;-41
2021/11/04 03:45:30;;;;;;;0.68;0.28;;;19.20;57.90;;;;;;5075882;28;20075;-41
2021/11/04 03:47:58;;;;;;;0.60;0.30;;;19.20;57.80;;;;;;5076750;28;20520;-42
2021/11/04 03:50:27;;;;;;;0.98;0.28;;;19.20;57.80;;;;;;5079037;28;20071;-41
2021/11/04 03:52:56;;;;;;;1.95;0.25;;;19.20;57.80;;;;;;5093860;28;20831;-42
2021/11/04 03:55:25;;;;;;;4.85;0.38;;;19.20;57.80;;;;;;5074633;28;20697;-41
2021/11/04 03:57:53;;;;;;;0.85;0.35;;;19.20;57.80;;;;;;5078453;28;20540;-42
2021/11/04 04:00:20;;;;;;;1.55;0.75;;;19.20;57.80;;;;;;5074352;28;20367;-41
2021/11/04 04:02:50;;;;;;;2.10;1.20;;;19.20;57.80;;;;;;5079589;28;20102;-42
2021/11/04 04:05:26;;;;;;;1.20;0.20;;;19.20;58.40;;;;;;5084785;28;20036;-41
2021/11/04 04:07:53;;;;;;;;;;;19.20;57.80;;;;;;5078027;28;20050;-41
2021/11/04 04:10:22;;;;;;;0.93;0.45;;;19.10;57.70;;;;;;5074335;28;19933;-41
2021/11/04 04:12:49;;;;;;;0.40;0.22;;;19.10;57.90;;;;;;5074870;28;20064;-40
2021/11/04 04:15:16;;;;;;;1.38;0.55;;;19.10;57.80;;;;;;5082178;28;20036;-42
2021/11/04 04:17:43;;;;;;;2.17;0.50;;;19.10;57.80;;;;;;5080801;28;20045;-42
2021/11/04 04:20:11;;;;;;;0.47;0.47;;;19.10;57.80;;;;;;5083995;28;20043;-42
2021/11/04 04:22:38;;;;;;;0.50;0.50;;;19.10;57.70;;;;;;5070800;28;20051;-41
2021/11/04 04:25:06;;;;;;;2.03;0.30;;;19.10;57.60;;;;;;5077221;28;20440;-42
2021/11/04 04:27:35;;;;;;;1.65;0.40;;;19.10;57.50;;;;;;5077433;28;20044;-42
2021/11/04 04:30:02;;;;;;;1.00;0.40;;;19.10;57.60;;;;;;5078589;28;20041;-42
2021/11/04 04:32:29;;;;;;;0.50;0.22;;;19.10;57.60;;;;;;5078349;28;20044;-41
2021/11/04 04:34:56;;;;;;;3.40;0.20;;;19.10;57.60;;;;;;5080711;28;20048;-41
2021/11/04 04:37:23;;;;;;;0.63;0.20;;;19.10;57.60;;;;;;5074398;28;20613;-41
2021/11/04 04:39:50;;;;;;;0.95;0.20;;;19.10;57.70;;;;;;5072325;28;20417;-41
2021/11/04 04:42:17;;;;;;;1.65;0.40;;;19.10;57.60;;;;;;5075104;28;20036;-41
2021/11/04 04:44:45;;;;;;;2.38;0.40;;;19.10;57.60;;;;;;5078321;28;20040;-41
2021/11/04 04:47:12;;;;;;;1.15;0.30;;;19.10;57.60;;;;;;5082997;28;20058;-41
2021/11/04 04:49:39;;;;;;;1.50;0.20;;;19.20;57.60;;;;;;5075785;28;20048;-42
2021/11/04 04:52:07;;;;;;;1.92;0.17;;;19.10;57.50;;;;;;5074658;28;20044;-41
2021/11/04 04:54:34;;;;;;;0.77;0.25;;;19.10;57.50;;;;;;5076152;28;20115;-41
2021/11/04 04:57:01;;;;;;;1.88;0.20;;;19.10;57.50;;;;;;5079041;28;20066;-41
2021/11/04 04:59:29;;;;;;;0.85;0.50;;;19.20;57.50;;;;;;5078354;28;20047;-41
2021/11/04 05:01:58;;;;;;;0.40;0.40;;;19.10;57.40;;;;;;5077929;28;20476;-41
2021/11/04 05:04:25;;;;;;;1.40;0.40;;;19.10;57.30;;;;;;5073097;28;20032;-41
2021/11/04 05:06:52;;;;;;;0.63;0.20;;;19.10;57.30;;;;;;5074834;28;20036;-41
2021/11/04 05:09:19;;;;;;;1.65;0.30;;;19.10;57.30;;;;;;5075027;28;20032;-42
2021/11/04 05:11:46;;;;;;;0.47;0.30;;;19.20;57.40;;;;;;5066273;28;20029;-42
2021/11/04 05:14:13;;;;;;;1.40;0.40;;;19.10;57.40;;;;;;5078218;28;20048;-42
2021/11/04 05:16:40;;;;;;;0.65;0.20;;;19.10;57.40;;;;;;5076410;28;20430;-42
2021/11/04 05:19:09;;;;;;;0.85;0.28;;;19.20;57.50;;;;;;5071623;28;20119;-42
2021/11/04 05:21:36;;;;;;;0.80;0.63;;;19.20;57.50;;;;;;5069050;28;20040;-42
2021/11/04 05:24:06;;;;;;;0.65;0.57;;;19.10;57.40;;;;;;5064013;28;20036;-41
2021/11/04 05:26:33;;;;;;;0.95;0.85;;;19.10;57.40;;;;;;5073375;28;20044;-42
2021/11/04 05:29:00;;;;;;;1.40;0.17;;;19.10;57.60;;;;;;5080774;28;20067;-40
2021/11/04 05:31:27;;;;;;;0.60;0.20;;;19.10;57.40;;;;;;5064126;28;20046;-42
2021/11/04 05:33:54;;;;;;;0.38;0.38;;;19.10;57.40;;;;;;5067791;28;20949;-41
2021/11/04 05:36:22;;;;;;;0.20;0.20;;;19.10;57.50;;;;;;5069138;28;20035;-41
2021/11/04 05:38:49;;;;;;;1.65;0.35;;;19.10;57.50;;;;;;5076995;28;20036;-42
2021/11/04 05:41:16;;;;;;;0.70;0.20;;;19.10;57.50;;;;;;5075499;28;20062;-42
2021/11/04 05:44:09;;;;;;;0.40;0.20;;;19.10;57.50;;;;;;5081688;28;20044;-42
2021/11/04 05:46:36;;;;;;;0.63;0.35;;;19.10;57.60;;;;;;5073112;28;20050;-42
2021/11/04 05:49:03;;;;;;;3.17;0.20;;;19.10;57.50;;;;;;5075012;28;20460;-42
2021/11/04 05:51:31;;;;;;;0.45;0.20;;;19.20;57.50;;;;;;5071900;28;20060;-43
2021/11/04 05:53:58;;;;;;;1.55;0.50;;;19.10;57.40;;;;;;5076689;28;20056;-42
2021/11/04 05:56:25;;;;;;;0.47;0.20;;;19.20;57.40;;;;;;5067051;28;20686;-42
2021/11/04 05:58:52;;;;;;;0.47;0.45;;;19.10;57.40;;;;;;5082141;28;20055;-42
2021/11/04 06:01:19;;;;;;;0.30;0.20;;;19.20;57.40;;;;;;5064034;28;20051;-42
2021/11/04 06:03:46;;;;;;;0.70;0.20;;;19.10;57.40;;;;;;5072202;28;20118;-42
2021/11/04 06:06:13;;;;;;;0.40;0.30;;;19.10;57.40;;;;;;5076634;28;20044;-42
2021/11/04 06:08:42;;;;;;;1.70;0.20;;;19.10;57.40;;;;;;5072010;28;20044;-41
2021/11/04 06:11:09;;;;;;;0.20;0.20;;;19.10;57.40;;;;;;5071019;28;20301;-43
2021/11/04 06:13:36;;;;;;;1.15;0.20;;;19.10;57.40;;;;;;5068583;28;20522;-42
2021/11/04 06:16:04;;;;;;;0.20;0.10;;;19.10;57.40;;;;;;5069660;28;20044;-42
2021/11/04 06:18:31;;;;;;;3.75;0.20;;;19.10;57.50;;;;;;5073227;28;20081;-41
2021/11/04 06:20:58;;;;;;;0.88;0.30;;;19.20;57.60;;;;;;5068627;28;20055;-41
2021/11/04 06:23:25;;;;;;;5.32;0.20;;;19.10;57.60;;;;;;5062618;28;20039;-41
2021/11/04 06:25:53;;;;;;;1.95;0.45;;;19.10;57.60;;;;;;5064474;28;20039;-41
2021/11/04 06:28:20;;;;;;;1.52;0.20;;;19.10;57.70;;;;;;5064749;28;20036;-41
2021/11/04 06:30:47;;;;;;;2.58;0.55;;;19.10;57.90;;;;;;5067882;28;20040;-41
2021/11/04 06:33:14;;;;;;;0.30;0.30;;;19.20;58.20;;;;;;5069046;28;20037;-41
2021/11/04 06:35:41;;;;;;;0.75;0.20;;;19.30;58.40;;;;;;5072428;28;20164;-41
2021/11/04 06:38:09;;;;;;;1.85;0.17;;;19.30;58.50;;;;;;5076410;28;20032;-41
2021/11/04 06:40:36;;;;;;;0.20;0.20;;;19.40;58.50;;;;;;5070842;28;20048;-41
2021/11/04 06:43:04;;;;;;;0.75;0.10;;;19.50;58.50;;;;;;5072571;28;20038;-41
2021/11/04 06:45:34;;;;;;;0.30;0.30;;;19.60;58.40;;;;;;5067061;28;20044;-41
2021/11/04 06:48:03;;;;;;;1.27;0.63;;;19.70;58.40;;;;;;5066237;28;20044;-41
2021/11/04 06:50:33;;;;;;;2.50;0.30;;;19.80;58.40;;;;;;5069452;28;20043;-41
2021/11/04 06:53:07;;;;;;;0.30;0.10;;;19.90;58.30;;;;;;5069729;28;20135;-41
2021/11/04 06:55:39;;;;;;;0.20;0.20;;;20.00;58.20;;;;;;5066376;28;20178;-41
2021/11/04 06:58:14;;;;;;;0.20;0.10;;;20.10;58.20;;;;;;5066422;28;20397;-41
2021/11/04 07:00:46;;;;;;;0.40;0.27;;;20.20;58.10;;;;;;5067790;28;20041;-41
2021/11/04 07:03:20;;;;;;;0.10;0.10;;;20.30;58.00;;;;;;5062884;28;20079;-41
2021/11/04 07:05:47;;;;;;;1.65;0.20;;;20.40;57.80;;;;;;5070674;28;20032;-41
2021/11/04 07:08:22;;;;;;;14.25;4.15;;;20.40;57.70;;;;;;5077772;28;20054;-40
2021/11/04 07:10:49;;;;;;;21.52;7.53;;;20.40;57.90;;;;;;5075683;28;20123;-41
2021/11/04 07:13:18;;;;;;;21.23;3.80;;;20.40;58.60;;;;;;5069490;28;20047;-41
2021/11/04 07:15:47;;;;;;;17.38;3.85;;;20.30;58.80;;;;;;5071403;28;20141;-41
2021/11/04 07:18:15;;;;;;;13.48;4.70;;;20.30;58.90;;;;;;5066244;28;20052;-41
2021/11/04 07:20:45;;;;;;;9.50;2.58;;;20.30;59.00;;;;;;5068587;28;20051;-42
2021/11/04 07:23:16;;;;;;;9.15;3.42;;;20.30;59.10;;;;;;5069255;28;20054;-41
2021/11/04 07:25:46;;;;;;;11.73;2.88;;;20.30;59.20;;;;;;5070985;28;20036;-43
2021/11/04 07:28:19;;;;;;;3.97;2.15;;;20.20;59.30;;;;;;5069260;28;20063;-41
2021/11/04 07:30:46;;;;;;;10.82;2.53;;;20.20;59.30;;;;;;5064511;28;20807;-41
2021/11/04 07:33:17;;;;;;;10.23;3.30;;;20.20;59.20;;;;;;5063640;28;20135;-41
2021/11/04 07:35:44;;;;;;;8.60;1.90;;;20.20;59.10;;;;;;5064888;28;20588;-43
2021/11/04 07:38:13;;;;;;;6.45;1.45;;;20.10;59.10;;;;;;5081304;28;20072;-42
2021/11/04 07:40:41;;;;;;;8.07;1.75;;;20.10;59.20;;;;;;5073693;28;20093;-42
2021/11/04 07:43:09;;;;;;;6.03;1.52;;;20.10;59.20;;;;;;5065912;28;20040;-43
2021/11/04 07:45:38;;;;;;;6.68;1.73;;;20.10;59.30;;;;;;5062606;28;20508;-42
2021/11/04 07:48:05;;;;;;;6.32;1.27;;;20.10;59.30;;;;;;5070823;28;20040;-42
2021/11/04 07:50:33;;;;;;;21.33;4.70;;;20.00;59.20;;;;;;5063143;28;20033;-43
2021/11/04 07:53:00;;;;;;;12.43;2.88;;;20.00;60.40;;;;;;5073396;28;20036;-42
2021/11/04 07:55:28;;;;;;;8.82;1.60;;;20.00;62.10;;;;;;5068818;28;20051;-42
2021/11/04 07:57:55;;;;;;;14.95;1.67;;;20.00;63.40;;;;;;5068219;28;20044;-42
2021/11/04 08:00:28;;;;;;;11.60;2.05;;;20.00;64.00;;;;;;5073119;28;20048;-42
2021/11/04 08:02:56;;;;;;;11.18;1.77;;;20.00;64.60;;;;;;5075807;28;20037;-42
2021/11/04 08:05:24;;;;;;;14.25;1.38;;;20.00;64.90;;;;;;5082904;28;20044;-41
2021/11/04 08:07:51;;;;;;;22.70;2.33;;;20.00;65.20;;;;;;5076490;28;20105;-41
2021/11/04 08:10:19;;;;;;;9.30;1.65;;;20.00;65.50;;;;;;5075742;28;20044;-42
2021/11/04 08:12:47;;;;;;;6.15;1.98;;;20.00;65.50;;;;;;5075639;28;20040;-41
2021/11/04 08:15:16;;;;;;;6.65;1.90;;;20.00;65.50;;;;;;5078639;28;20055;-42
2021/11/04 08:17:43;;;;;;;8.85;1.98;;;20.00;65.50;;;;;;5079950;28;20049;-42
2021/11/04 08:20:12;;;;;;;4.63;1.48;;;20.00;65.60;;;;;;5083405;28;20055;-42
2021/11/04 08:22:39;;;;;;;5.63;1.70;;;20.00;65.70;;;;;;5074019;28;20040;-41
2021/11/04 08:25:08;;;;;;;7.47;1.55;;;19.90;65.60;;;;;;5074947;28;20097;-41
2021/11/04 08:27:35;;;;;;;4.93;1.27;;;19.90;65.60;;;;;;5076848;28;20127;-41
2021/11/04 08:30:03;;;;;;;3.35;0.63;;;19.90;65.60;;;;;;5077118;28;20511;-40
2021/11/04 08:32:30;;;;;;;4.70;0.95;;;19.90;65.50;;;;;;5077174;28;20047;-41
2021/11/04 08:34:56;;;;;;;4.03;1.17;;;19.90;65.50;;;;;;5079917;28;20055;-41
2021/11/04 08:37:25;;;;;;;10.60;0.55;;;19.90;65.50;;;;;;5074488;28;20131;-40
2021/11/04 08:39:52;;;;;;;3.55;0.60;;;19.90;65.50;;;;;;5078018;28;20049;-43
2021/11/04 08:42:19;;;;;;;5.68;0.82;;;19.90;65.40;;;;;;5074571;28;20043;-41
2021/11/04 08:44:47;;;;;;;4.13;0.60;;;19.90;65.40;;;;;;5079574;28;20432;-40
2021/11/04 08:47:14;;;;;;;7.43;0.70;;;19.80;65.40;;;;;;5080121;28;20036;-40
2021/11/04 08:49:42;;;;;;;3.58;0.70;;;19.80;65.40;;;;;;5075334;28;20043;-40
2021/11/04 08:52:09;;;;;;;3.90;1.33;;;19.80;65.40;;;;;;5074242;28;20048;-41
2021/11/04 08:54:40;;;;;;;4.10;0.52;;;19.80;65.20;;;;;;5075871;28;20032;-41
2021/11/04 08:57:08;;;;;;;3.58;0.20;;;19.80;65.20;;;;;;5078313;28;20040;-40
2021/11/04 08:59:38;;;;;;;2.67;0.40;;;19.80;65.10;;;;;;5082505;28;20056;-40
2021/11/04 09:02:06;;;;;;;5.35;0.85;;;19.80;65.00;;;;;;5081782;28;20036;-42
2021/11/04 09:04:33;;;;;;;3.25;0.63;;;19.80;65.00;;;;;;5072958;28;20036;-40
2021/11/04 09:07:00;;;;;;;4.82;2.00;;;19.80;64.90;;;;;;5076735;28;20044;-41
2021/11/04 09:09:27;;;;;;;1.92;0.40;;;19.80;64.80;;;;;;5077025;28;20563;-42
2021/11/04 09:11:56;;;;;;;1.48;0.20;;;19.80;64.70;;;;;;5076211;28;20047;-41
2021/11/04 09:14:23;;;;;;;6.82;1.00;;;19.80;64.60;;;;;;5079819;28;20046;-41
2021/11/04 09:16:50;;;;;;;3.65;0.50;;;19.80;64.60;;;;;;5077456;28;20043;-41
2021/11/04 09:19:18;;;;;;;3.33;0.30;;;19.80;64.50;;;;;;5074160;28;20044;-41
2021/11/04 09:21:45;;;;;;;1.48;0.10;;;19.80;64.40;;;;;;5072850;28;20044;-41
2021/11/04 09:24:12;;;;;;;0.88;0.77;;;19.80;64.30;;;;;;5074435;28;20054;-40
2021/11/04 09:26:41;;;;;;;1.23;0.20;;;19.80;64.10;;;;;;5079475;28;20051;-42
2021/11/04 09:29:09;;;;;;;1.95;0.93;;;19.80;64.00;;;;;;5080160;28;20531;-42
2021/11/04 09:31:36;;;;;;;1.15;0.17;;;19.80;63.80;;;;;;5075097;28;20051;-41
2021/11/04 09:34:04;;;;;;;1.33;0.20;;;19.90;63.80;;;;;;5074115;28;20033;-41
2021/11/04 09:36:32;;;;;;;0.20;0.17;;;19.90;63.60;;;;;;5076101;28;20043;-41
2021/11/04 09:39:02;;;;;;;0.82;0.80;;;19.90;63.50;;;;;;5078408;28;20055;-41
2021/11/04 09:41:29;;;;;;;2.00;0.40;;;19.90;63.40;;;;;;5077414;28;20048;-42
2021/11/04 09:43:57;;;;;;;2.42;0.38;;;19.90;63.30;;;;;;5069430;28;20036;-41
2021/11/04 09:46:26;;;;;;;0.73;0.10;;;19.90;63.20;;;;;;5072440;28;20500;-40
2021/11/04 09:48:54;;;;;;;1.17;1.08;;;19.90;63.00;;;;;;5079658;28;20044;-41
2021/11/04 09:51:22;;;;;;;2.67;0.50;;;19.90;63.00;;;;;;5076818;28;20581;-41
2021/11/04 09:53:49;;;;;;;0.90;0.40;;;19.90;62.90;;;;;;5075475;28;20045;-41
2021/11/04 09:56:16;;;;;;;1.95;0.30;;;19.90;62.80;;;;;;5081646;28;20044;-41
2021/11/04 09:58:44;;;;;;;2.40;0.38;;;19.90;62.60;;;;;;5076032;28;20056;-41
2021/11/04 10:01:19;;;;;;;1.70;0.32;;;19.90;62.50;;;;;;5073810;28;20040;-41
2021/11/04 10:03:48;;;;;;;2.75;0.22;;;19.90;62.30;;;;;;5074186;28;20144;-41
2021/11/04 10:06:22;;;;;;;3.83;0.43;;;19.90;62.20;;;;;;5075321;28;20576;-41
2021/11/04 10:08:51;;;;;;;2.95;0.40;;;19.90;62.10;;;;;;5076040;28;20098;-41
2021/11/04 10:11:20;;;;;;;3.55;1.25;;;19.90;62.00;;;;;;5082492;28;20060;-41
2021/11/04 10:13:49;;;;;;;2.25;0.75;;;19.90;61.90;;;;;;5069725;28;20040;-41
2021/11/04 10:16:18;;;;;;;1.52;0.20;;;19.90;61.70;;;;;;5073213;28;20508;-41
2021/11/04 10:18:48;;;;;;;1.42;1.00;;;20.00;61.60;;;;;;5073381;28;20040;-41
2021/11/04 10:21:22;;;;;;;3.42;0.28;;;20.00;61.40;;;;;;5076471;28;20035;-41
2021/11/04 10:23:50;;;;;;;1.73;0.32;;;20.00;61.30;;;;;;5066802;28;20036;-41
2021/11/04 10:26:20;;;;;;;2.47;0.35;;;20.00;61.00;;;;;;5082350;28;20036;-40
2021/11/04 10:28:49;;;;;;;4.68;0.10;;;20.00;60.80;;;;;;5073209;28;20044;-41
2021/11/04 10:31:18;;;;;;;1.33;0.10;;;20.00;60.60;;;;;;5073662;28;20128;-41
2021/11/04 10:33:48;;;;;;;0.88;0.20;;;20.00;60.50;;;;;;5073029;28;20040;-41
2021/11/04 10:36:17;;;;;;;2.22;0.10;;;20.00;60.30;;;;;;5076358;28;20051;-41
2021/11/04 10:38:45;;;;;;;2.28;0.30;;;20.10;60.20;;;;;;5075757;28;20217;-41
2021/11/04 10:41:20;;;;;;;1.17;0.30;;;20.10;60.00;;;;;;5078447;28;20060;-41
2021/11/04 10:43:48;;;;;;;2.15;0.20;;;20.10;59.80;;;;;;5072942;28;20040;-41
2021/11/04 10:46:16;;;;;;;3.67;1.05;;;20.20;59.80;;;;;;5071286;28;20037;-40
2021/11/04 10:48:45;;;;;;;1.65;0.20;;;20.20;59.60;;;;;;5076001;28;20124;-41
2021/11/04 10:51:19;;;;;;;2.30;0.28;;;20.20;60.00;;;;;;5076390;28;20047;-40
2021/11/04 10:53:55;;;;;;;2.78;0.15;;;20.20;59.30;;;;;;5075970;28;20086;-41
2021/11/04 10:56:23;;;;;;;3.10;0.30;;;20.30;59.30;;;;;;5075613;28;20489;-40
2021/11/04 10:59:03;;;;;;;1.38;0.43;;;20.30;59.10;;;;;;5077481;28;20044;-40
2021/11/04 11:01:36;;;;;;;3.80;0.20;;;20.30;58.60;;;;;;5072820;28;20044;-40
2021/11/04 11:04:07;;;;;;;2.25;0.50;;;20.40;58.50;;;;;;5058909;28;20126;-40
2021/11/04 11:06:38;;;;;;;2.33;0.32;;;20.40;58.40;;;;;;5062016;28;20123;-40
2021/11/04 11:09:07;;;;;;;0.77;0.40;;;20.40;58.20;;;;;;5076460;28;20037;-41
2021/11/04 11:11:36;;;;;;;0.80;0.17;;;20.40;58.00;;;;;;5077855;28;20121;-41
2021/11/04 11:14:03;;;;;;;2.45;0.85;;;20.40;57.90;;;;;;5072982;28;20044;-40
2021/11/04 11:16:31;;;;;;;1.95;0.20;;;20.40;57.70;;;;;;5075660;28;20044;-40
2021/11/04 11:18:59;;;;;;;1.35;0.55;;;20.40;58.20;;;;;;5075657;28;20048;-40
2021/11/04 11:21:35;;;;;;;1.38;0.20;;;20.40;57.50;;;;;;5076275;28;20040;-40
2021/11/04 11:24:04;;;;;;;2.15;0.20;;;20.40;57.40;;;;;;5075254;28;20115;-40
2021/11/04 11:26:32;;;;;;;5.32;0.20;;;20.40;57.40;;;;;;5082764;28;20040;-40
2021/11/04 11:29:00;;;;;;;2.47;0.25;;;20.30;57.30;;;;;;5080008;28;20568;-41
2021/11/04 11:31:28;;;;;;;1.10;0.10;;;20.30;57.20;;;;;;5075844;28;20048;-41
2021/11/04 11:34:27;;;;;;;0.75;0.75;;;20.30;57.20;;;;;;5075529;28;20221;-41
2021/11/04 11:37:15;;;;;;;1.77;0.10;;;20.40;57.10;;;;;;5074094;28;20121;-41
2021/11/04 11:39:45;;;;;;;2.80;0.20;;;20.30;57.00;;;;;;5074879;28;20040;-41
2021/11/04 11:42:17;;;;;;;2.40;0.20;;;20.30;57.00;;;;;;5079123;28;20033;-41
2021/11/04 11:44:51;;;;;;;2.28;0.20;;;20.30;56.90;;;;;;5070306;28;20094;-41
2021/11/04 11:47:19;;;;;;;3.13;0.30;;;20.30;56.70;;;;;;5079354;28;20560;-40
2021/11/04 11:49:49;;;;;;;1.38;0.65;;;20.30;57.30;;;;;;5078778;28;20138;-40
2021/11/04 11:52:53;;;;;;;1.05;0.30;;;20.30;56.60;;;;;;5078739;28;20044;-40
2021/11/04 11:55:22;;;;;;;2.72;0.10;;;20.30;56.40;;;;;;5065883;28;20094;-41
2021/11/04 11:58:30;;;;;;;0.93;0.35;;;20.30;56.30;;;;;;5075910;28;20147;-41
2021/11/04 12:01:08;;;;;;;0.43;0.10;;;20.30;56.20;;;;;;5075753;28;20046;-41
2021/11/04 12:03:50;;;;;;;1.23;0.10;;;20.30;56.20;;;;;;5075380;28;20523;-41
2021/11/04 12:06:53;;;;;;;0.20;0.20;;;20.30;56.10;;;;;;5075924;28;20127;-41
2021/11/04 12:09:41;;;;;;;0.55;0.10;;;20.30;56.00;;;;;;5071750;28;20420;-41
2021/11/04 12:12:29;;;;;;;0.70;0.28;;;20.30;56.10;;;;;;5059996;28;20763;-41
2021/11/04 12:15:01;;;;;;;3.22;0.20;;;20.20;56.10;;;;;;5070135;28;21163;-41
2021/11/04 12:17:28;;;;;;;1.48;0.30;;;20.20;56.00;;;;;;5082876;28;20040;-40
2021/11/04 12:19:59;;;;;;;0.22;0.10;;;20.20;56.00;;;;;;5078135;28;20055;-40
2021/11/04 12:22:28;;;;;;;1.27;0.10;;;20.20;56.00;;;;;;5074518;28;20041;-41
2021/11/04 12:24:58;;;;;;;0.20;0.20;;;20.20;55.90;;;;;;5074340;28;20044;-41
2021/11/04 12:27:27;;;;;;;1.30;0.20;;;20.20;55.90;;;;;;5077425;28;20039;-41
2021/11/04 12:29:56;;;;;;;1.55;0.10;;;20.20;55.90;;;;;;5076912;28;20037;-41
2021/11/04 12:32:26;;;;;;;1.83;0.63;;;20.20;55.90;;;;;;5086907;28;20396;-41
2021/11/04 12:34:58;;;;;;;2.72;0.20;;;20.10;55.80;;;;;;5075955;28;20048;-41
2021/11/04 12:37:29;;;;;;;2.47;0.82;;;20.10;55.80;;;;;;5072523;28;20046;-41
2021/11/04 12:39:59;;;;;;;1.38;0.40;;;20.10;55.80;;;;;;5077207;28;20060;-41
2021/11/04 12:42:26;;;;;;;1.95;0.80;;;20.10;56.30;;;;;;5077037;28;20047;-40
2021/11/04 12:44:54;;;;;;;2.60;0.13;;;20.10;55.70;;;;;;5076575;28;20041;-40
2021/11/04 12:47:26;;;;;;;1.00;0.85;;;20.10;55.70;;;;;;5082854;28;20078;-40
2021/11/04 12:49:54;;;;;;;3.38;0.25;;;20.10;55.60;;;;;;5080226;28;20048;-40
2021/11/04 12:52:22;;;;;;;0.73;0.20;;;20.10;55.60;;;;;;5073930;28;20040;-41
2021/11/04 12:54:53;;;;;;;1.85;0.20;;;20.00;55.50;;;;;;5070967;28;20101;-40